Trout Dale, Virginia
Current Conditions -  °F | °C
As of 5:55 AM on Wednesday 22 Oct 2014 (Local Time) from KMKJ Reporting Station
Overcast Overcast  
Wind Chill: 37°   Ceiling: 1900
Heat Index: 43°   Visibility: 10mi
Dew Point: 36°   Wind: 12mph
Humidity: 76%   Direction: 300°WNW
Pressure: 30.09"   Gusts: 23mph
Location:  36.6855°N, 81.435°W
Report Text: KMKJ 220955Z AUTO 30010G20KT 10SM OVC019 06/02 A3009 RMK AO2 T00630023
Loading
Personal Weather Stations






























Interactive Weather Map
Tropical Storm Tracking
New forecast layout! Learn more

10-Day Weather Forecast

Advertisements
Track Severe Weather on mobile